Naples, Italy

11:26 AM CET on December 08, 2016 (GMT +0100)
Calata San Marco | | Change Station

Elev 0 ft 40.84 °N, 14.25 °E | Updated 7 minutes ago

Clear
Clear
59.4 °F
Feels Like 59.4 °F
N
1.9
Wind Variable Wind from North
Gusts 6.2 mph

Today
High -- | Low -- °F
--% Chance of Precip.
Yesterday
High -- | Low -- °F
Precip. -- in
Pressure 30.54 in
Visibility -9999.0 miles
Clouds
Dew Point 40 °F
Humidity 49%
Rainfall Not available.
Snow Depth Not available.
7:14 AM 4:34 PM
First Quarter, 62% visible
METAR LIRN 081020Z VRB02KT CAVOK 15/05 Q1034 NOSIG
Pressure 30.54 in
Visibility -9999.0 miles
Clouds
Dew Point 40 °F
Humidity 49%
Rainfall Not available.
Snow Depth Not available.
7:14 AM 4:34 PM
First Quarter, 62% visible
METAR LIRN 081020Z VRB02KT CAVOK 15/05 Q1034 NOSIG

10-Day Weather Forecast

×

Almanac

Astronomy

Dec. 08, 2016 Rise Set
Actual Time
Civil Twilight
Nautical Twilight
Astronomical Twilight
Moon
Length of Visible Light
Length of Day
Tomorrow will be .
, % of the Moon is Illuminated

Today's Extremes

Country Highs Country Lows

Community

WunderPhotos

Upload Photos

1,956,261 photos uploaded!

WunderBlog® & News

Nearby

Air Quality

  Air Quality AQ Index Pollutant
Not available.

Snow Depth

Station Depth Elevation

Earthquake Activity

City Distance Mag. Time & Date
Minimum magnitude displayed is 2.5.

Coastal Water Temperatures

Place Temperature

Stations

Nearby Weather Stations

Station Location Temp. Windchill Dew Point Humidity Wind Precip. Elev Updated Type